PWSweather.com
Personal Weather Stations
Station Observations
ROSEGARDEN
Rose Garden, Brentwood, CA 94513

Rose GardenBrentwood, CA 94513

Lat: 37.967503, Lon: -121.721004

Elevation: 85

Station Type: La Crosse 2813

High Low Average
Temperature 58.0°F14.4°C 57.6°F14.2°C 57.7°F14.3°C
Dew Point 49.5°F9.7°C 49.0°F9.4°C 49.2°F9.6°C
Winds 8.6 mph 13.8 kmh 4.0 mph 6.4 kmh 6.0 mph SSE9.7 kmh SSE
Wind Gusts 11.6 mph18.7 kmh 8.5 mph13.7 kmh 10.0 mph16.1 kmh
Humidity 74% 73% 73%
Pressure 29.98 in1015.2 mb 29.96 in1014.6 mb -
Precipitation 0.00 in0.0 mm - -
Hour Temp Dew Point Humidity Winds Wind Gusts Pressure Precip Precip Rate Daily Precip Total
12:00 AM 57.4°F14.1°C 49.1°F9.5°C 74% 6.3 mph SE10.1 kmh SE 11.2 mph18.0 kmh 29.98 in1015.2 mb 0.00 in0.0 mm 0.00 in/hr0.0 mm/hr 0.00 in0.0 mm
12:05 AM 57.4°F14.1°C 49.1°F9.5°C 74% 5.8 mph SE9.3 kmh SE 12.1 mph19.5 kmh 29.98 in1015.2 mb 0.00 in0.0 mm 0.00 in/hr0.0 mm/hr 0.00 in0.0 mm
12:10 AM 57.4°F14.1°C 49.1°F9.5°C 74% 6.5 mph SSE10.5 kmh SSE 12.1 mph19.5 kmh 29.98 in1015.2 mb 0.00 in0.0 mm 0.00 in/hr0.0 mm/hr 0.00 in0.0 mm
12:15 AM 57.4°F14.1°C 49.1°F9.5°C 74% 5.1 mph SSE8.2 kmh SSE 8.3 mph13.4 kmh 29.98 in1015.2 mb 0.00 in0.0 mm 0.00 in/hr0.0 mm/hr 0.00 in0.0 mm
12:20 AM 57.2°F14.0°C 49.0°F9.4°C 74% 6.0 mph SE9.7 kmh SE 8.5 mph13.7 kmh 29.98 in1015.2 mb 0.00 in0.0 mm 0.00 in/hr0.0 mm/hr 0.00 in0.0 mm
12:25 AM 57.2°F14.0°C 49.0°F9.4°C 74% 5.7 mph SE9.2 kmh SE 8.5 mph13.7 kmh 29.98 in1015.2 mb 0.00 in0.0 mm 0.00 in/hr0.0 mm/hr 0.00 in0.0 mm
12:30 AM 57.2°F14.0°C 49.0°F9.4°C 74% 6.9 mph SE11.1 kmh SE 9.2 mph14.8 kmh 29.98 in1015.2 mb 0.00 in0.0 mm 0.00 in/hr0.0 mm/hr 0.00 in0.0 mm
12:36 AM 57.4°F14.1°C 49.1°F9.5°C 74% 6.7 mph SE10.8 kmh SE 9.2 mph14.8 kmh 29.98 in1015.2 mb 0.00 in0.0 mm 0.00 in/hr0.0 mm/hr 0.00 in0.0 mm
12:41 AM 57.4°F14.1°C 49.1°F9.5°C 74% 7.7 mph SSE12.4 kmh SSE 13.2 mph21.2 kmh 29.98 in1015.2 mb 0.00 in0.0 mm 0.00 in/hr0.0 mm/hr 0.00 in0.0 mm
12:46 AM 57.6°F14.2°C 49.3°F9.6°C 74% 6.7 mph SSE10.8 kmh SSE 14.8 mph23.8 kmh 29.98 in1015.2 mb 0.00 in0.0 mm 0.00 in/hr0.0 mm/hr 0.00 in0.0 mm
12:51 AM 57.6°F14.2°C 49.3°F9.6°C 74% 5.1 mph SSE8.2 kmh SSE 14.8 mph23.8 kmh 29.98 in1015.2 mb 0.00 in0.0 mm 0.00 in/hr0.0 mm/hr 0.00 in0.0 mm
12:56 AM 57.6°F14.2°C 49.3°F9.6°C 74% 8.9 mph SSE14.3 kmh SSE 11.4 mph18.3 kmh 29.98 in1015.2 mb 0.00 in0.0 mm 0.00 in/hr0.0 mm/hr 0.00 in0.0 mm
01:01 AM 58.0°F14.4°C 49.3°F9.6°C 73% 6.4 mph SSE10.3 kmh SSE 11.4 mph18.3 kmh 29.98 in1015.2 mb 0.00 in0.0 mm 0.00 in/hr0.0 mm/hr 0.00 in0.0 mm
01:06 AM 58.0°F14.4°C 49.3°F9.6°C 73% 5.5 mph SE8.9 kmh SE 10.5 mph16.9 kmh 29.98 in1015.2 mb 0.00 in0.0 mm 0.00 in/hr0.0 mm/hr 0.00 in0.0 mm
01:11 AM 57.8°F14.3°C 49.1°F9.5°C 73% 6.5 mph SSE10.5 kmh SSE 11.6 mph18.7 kmh 29.98 in1015.2 mb 0.00 in0.0 mm 0.00 in/hr0.0 mm/hr 0.00 in0.0 mm
01:16 AM 57.8°F14.3°C 49.1°F9.5°C 73% 5.7 mph SE9.2 kmh SE 11.6 mph18.7 kmh 29.98 in1015.2 mb 0.00 in0.0 mm 0.00 in/hr0.0 mm/hr 0.00 in0.0 mm
01:21 AM 57.8°F14.3°C 49.1°F9.5°C 73% 4.8 mph SE7.7 kmh SE 8.5 mph13.7 kmh 29.98 in1015.2 mb 0.00 in0.0 mm 0.00 in/hr0.0 mm/hr 0.00 in0.0 mm
01:26 AM 57.6°F14.2°C 49.0°F9.4°C 73% 4.1 mph SE6.6 kmh SE 8.9 mph14.3 kmh 29.97 in1014.9 mb 0.00 in0.0 mm 0.00 in/hr0.0 mm/hr 0.00 in0.0 mm
01:31 AM 57.6°F14.2°C 49.0°F9.4°C 73% 6.9 mph SE11.1 kmh SE 9.2 mph14.8 kmh 29.97 in1014.9 mb 0.00 in0.0 mm 0.00 in/hr0.0 mm/hr 0.00 in0.0 mm
01:37 AM 57.6°F14.2°C 49.3°F9.6°C 74% 8.6 mph SE13.8 kmh SE 10.7 mph17.2 kmh 29.97 in1014.9 mb 0.00 in0.0 mm 0.00 in/hr0.0 mm/hr 0.00 in0.0 mm
01:42 AM 57.6°F14.2°C 49.0°F9.4°C 73% 4.5 mph SE7.2 kmh SE 10.7 mph17.2 kmh 29.98 in1015.2 mb 0.00 in0.0 mm 0.00 in/hr0.0 mm/hr 0.00 in0.0 mm
01:47 AM 57.6°F14.2°C 49.3°F9.6°C 74% 7.2 mph SE11.6 kmh SE 9.6 mph15.4 kmh 29.97 in1014.9 mb 0.00 in0.0 mm 0.00 in/hr0.0 mm/hr 0.00 in0.0 mm
01:52 AM 57.6°F14.2°C 49.0°F9.4°C 73% 5.7 mph SE9.2 kmh SE 9.8 mph15.8 kmh 29.97 in1014.9 mb 0.00 in0.0 mm 0.00 in/hr0.0 mm/hr 0.00 in0.0 mm
01:57 AM 57.6°F14.2°C 49.3°F9.6°C 74% 7.9 mph SE12.7 kmh SE 9.8 mph15.8 kmh 29.98 in1015.2 mb 0.00 in0.0 mm 0.00 in/hr0.0 mm/hr 0.00 in0.0 mm
02:02 AM 57.6°F14.2°C 49.3°F9.6°C 74% 5.7 mph SSE9.2 kmh SSE 9.8 mph15.8 kmh 29.98 in1015.2 mb 0.00 in0.0 mm 0.00 in/hr0.0 mm/hr 0.00 in0.0 mm
02:07 AM 57.6°F14.2°C 49.0°F9.4°C 73% 6.8 mph SSE10.9 kmh SSE 8.7 mph14.0 kmh 29.98 in1015.2 mb 0.00 in0.0 mm 0.00 in/hr0.0 mm/hr 0.00 in0.0 mm
02:12 AM 57.6°F14.2°C 49.0°F9.4°C 73% 4.0 mph SSE6.4 kmh SSE 8.7 mph14.0 kmh 29.98 in1015.2 mb 0.00 in0.0 mm 0.00 in/hr0.0 mm/hr 0.00 in0.0 mm
02:17 AM 57.6°F14.2°C 49.0°F9.4°C 73% 5.7 mph SSE9.2 kmh SSE 9.2 mph14.8 kmh 29.98 in1015.2 mb 0.00 in0.0 mm 0.00 in/hr0.0 mm/hr 0.00 in0.0 mm
02:22 AM 57.6°F14.2°C 49.3°F9.6°C 74% 5.7 mph SSE9.2 kmh SSE 9.2 mph14.8 kmh 29.98 in1015.2 mb 0.00 in0.0 mm 0.00 in/hr0.0 mm/hr 0.00 in0.0 mm
02:27 AM 57.6°F14.2°C 49.3°F9.6°C 74% 5.1 mph SSE8.2 kmh SSE 9.2 mph14.8 kmh 29.98 in1015.2 mb 0.00 in0.0 mm 0.00 in/hr0.0 mm/hr 0.00 in0.0 mm
02:32 AM 57.6°F14.2°C 49.3°F9.6°C 74% 5.8 mph S9.3 kmh S 9.2 mph14.8 kmh 29.98 in1015.2 mb 0.00 in0.0 mm 0.00 in/hr0.0 mm/hr 0.00 in0.0 mm
02:37 AM 57.6°F14.2°C 49.3°F9.6°C 74% 7.1 mph SSE11.4 kmh SSE 11.6 mph18.7 kmh 29.97 in1014.9 mb 0.00 in0.0 mm 0.00 in/hr0.0 mm/hr 0.00 in0.0 mm
02:42 AM 57.8°F14.3°C 49.5°F9.7°C 74% 4.9 mph S7.9 kmh S 11.6 mph18.7 kmh 29.97 in1014.9 mb 0.00 in0.0 mm 0.00 in/hr0.0 mm/hr 0.00 in0.0 mm
02:47 AM 57.8°F14.3°C 49.1°F9.5°C 73% 6.6 mph SSE10.6 kmh SSE 9.4 mph15.1 kmh 29.97 in1014.9 mb 0.00 in0.0 mm 0.00 in/hr0.0 mm/hr 0.00 in0.0 mm
02:53 AM 57.8°F14.3°C 49.1°F9.5°C 73% 6.1 mph S9.8 kmh S 11.4 mph18.3 kmh 29.97 in1014.9 mb 0.00 in0.0 mm 0.00 in/hr0.0 mm/hr 0.00 in0.0 mm
02:59 AM 58.0°F14.4°C 49.3°F9.6°C 73% 5.8 mph S9.3 kmh S 9.6 mph15.4 kmh 29.97 in1014.9 mb 0.00 in0.0 mm 0.00 in/hr0.0 mm/hr 0.00 in0.0 mm
03:04 AM 58.0°F14.4°C 49.3°F9.6°C 73% 8.5 mph S13.7 kmh S 10.5 mph16.9 kmh 29.96 in1014.6 mb 0.00 in0.0 mm 0.00 in/hr0.0 mm/hr 0.00 in0.0 mm
03:09 AM 58.0°F14.4°C 49.3°F9.6°C 73% 6.6 mph SSE10.6 kmh SSE 10.5 mph16.9 kmh 29.96 in1014.6 mb 0.00 in0.0 mm 0.00 in/hr0.0 mm/hr 0.00 in0.0 mm
03:14 AM 58.0°F14.4°C 49.3°F9.6°C 73% 8.4 mph SSE13.5 kmh SSE 10.5 mph16.9 kmh 29.96 in1014.6 mb 0.00 in0.0 mm 0.00 in/hr0.0 mm/hr 0.00 in0.0 mm
03:19 AM 58.0°F14.4°C 49.3°F9.6°C 73% 5.9 mph S9.5 kmh S 10.3 mph16.6 kmh 29.97 in1014.9 mb 0.00 in0.0 mm 0.00 in/hr0.0 mm/hr 0.00 in0.0 mm